Time;durP1;ratioP1;P1;durP2;ratioP2;P2;SDS_P1;SDS_P2;PMS_P1;PMS_P2;Temp;Humidity;BMP_temperature;BMP_pressure;BME280_temperature;BME280_humidity;BME280_pressure;Samples;Min_cycle;Max_cycle;Signal;HPM_P1;HPM_P2
2023/12/16 00:00:15;;;;;;;20.92;11.82;;;;;;;7.25;68.85;102093.91;5015808;27;101453;-83
2023/12/16 00:02:41;;;;;;;25.73;12.75;;;;;;;7.09;68.99;102083.31;5018571;27;96918;-83
2023/12/16 00:05:08;;;;;;;23.77;12.38;;;;;;;6.84;69.52;102069.19;5023506;27;96837;-83
2023/12/16 00:07:34;;;;;;;19.67;11.93;;;;;;;7.13;69.24;102099.03;5022646;27;100608;-83
2023/12/16 00:09:59;;;;;;;22.60;11.85;;;;;;;6.95;69.17;102083.19;5023182;27;97247;-83
2023/12/16 00:12:25;;;;;;;17.73;11.52;;;;;;;7.06;68.89;102092.00;5023423;27;97076;-83
2023/12/16 00:14:50;;;;;;;15.38;10.90;;;;;;;7.05;69.29;102087.63;5006668;27;97015;-83
2023/12/16 00:17:16;;;;;;;21.35;11.98;;;;;;;7.11;69.14;102097.25;4999608;27;101090;-84
2023/12/16 00:19:41;;;;;;;21.88;12.20;;;;;;;6.98;69.02;102083.22;5022660;27;97331;-83
2023/12/16 00:22:07;;;;;;;19.60;11.35;;;;;;;6.96;68.95;102077.13;5023243;27;96784;-83
2023/12/16 00:24:32;;;;;;;24.35;11.50;;;;;;;7.06;69.11;102092.00;5023024;27;96906;-83
2023/12/16 00:26:58;;;;;;;18.65;11.05;;;;;;;7.13;69.23;102092.94;5023240;27;97458;-82
2023/12/16 00:29:23;;;;;;;18.33;10.30;;;;;;;7.03;69.02;102089.34;5021361;27;99863;-83
2023/12/16 00:31:49;;;;;;;17.95;10.60;;;;;;;6.91;69.39;102082.28;5006366;27;96740;-83
2023/12/16 00:34:15;;;;;;;19.15;11.27;;;;;;;7.06;69.28;102104.19;5006334;27;97045;-83
2023/12/16 00:36:43;;;;;;;17.25;9.48;;;;;;;7.05;69.21;102092.84;5014296;27;99798;-83
2023/12/16 00:39:09;;;;;;;13.93;9.20;;;;;;;6.97;69.17;102094.53;5023386;27;97354;-83
2023/12/16 00:41:35;;;;;;;17.02;9.15;;;;;;;7.05;69.39;102107.66;5029201;27;97303;-83
2023/12/16 00:44:00;;;;;;;17.45;10.38;;;;;;;6.95;69.07;102093.63;5023213;27;98047;-83
2023/12/16 00:46:26;;;;;;;12.48;8.60;;;;;;;6.92;68.93;102075.31;5018633;27;100936;-83
2023/12/16 00:48:52;;;;;;;15.23;9.20;;;;;;;7.14;69.31;102107.72;5017775;27;101718;-83
2023/12/16 00:51:19;;;;;;;17.70;10.02;;;;;;;7.10;69.12;102105.94;5058091;27;96636;-82
2023/12/16 00:53:45;;;;;;;15.93;9.48;;;;;;;7.06;69.37;102099.81;5020193;27;96867;-82
2023/12/16 00:56:11;;;;;;;18.15;9.25;;;;;;;7.13;69.20;102109.47;5020394;27;100778;-82
2023/12/16 00:58:36;;;;;;;17.63;9.52;;;;;;;7.25;69.02;102113.94;5016940;27;101245;-83
2023/12/16 01:01:02;;;;;;;14.40;9.30;;;;;;;7.24;68.84;102120.91;5004190;27;96778;-83
2023/12/16 01:03:27;;;;;;;17.00;9.77;;;;;;;7.23;68.83;102100.84;5005053;27;96956;-83
2023/12/16 01:05:53;;;;;;;16.95;10.05;;;;;;;7.29;68.64;102107.84;5002778;27;101356;-82
2023/12/16 01:08:19;;;;;;;19.02;10.32;;;;;;;7.32;68.64;102120.06;5018233;27;101328;-84
2023/12/16 01:10:44;;;;;;;15.30;9.13;;;;;;;7.24;69.31;102106.94;5002214;27;97136;-83
2023/12/16 01:13:10;;;;;;;15.23;9.52;;;;;;;7.10;69.46;102104.22;5003363;27;97177;-85
2023/12/16 01:15:36;;;;;;;16.73;9.65;;;;;;;7.10;70.05;102125.13;5036289;27;97330;-83
2023/12/16 01:18:02;;;;;;;18.95;9.85;;;;;;;6.90;70.04;102092.72;5003442;27;100735;-83
2023/12/16 01:20:27;;;;;;;16.23;8.93;;;;;;;7.18;69.78;102118.19;5002657;27;97149;-83
2023/12/16 01:22:53;;;;;;;16.75;9.38;;;;;;;7.10;70.10;102112.06;5003859;27;97218;-83
2023/12/16 01:25:19;;;;;;;16.27;9.23;;;;;;;7.11;70.00;102113.81;5002268;27;101211;-82
2023/12/16 01:27:44;;;;;;;22.88;11.65;;;;;;;7.12;70.01;102131.22;5020022;27;100848;-83
2023/12/16 01:30:10;;;;;;;18.35;9.82;;;;;;;7.12;70.03;102135.56;5020351;27;96880;-83
2023/12/16 01:32:36;;;;;;;14.30;9.10;;;;;;;7.18;70.27;102136.47;5034335;27;96873;-83
2023/12/16 01:35:01;;;;;;;15.63;8.95;;;;;;;6.98;69.64;102089.34;5022285;27;101179;-83
2023/12/16 01:37:27;;;;;;;16.30;9.07;;;;;;;7.09;69.83;102109.41;5020067;27;101726;-83
2023/12/16 01:39:53;;;;;;;20.02;9.75;;;;;;;6.98;70.32;102088.44;5003498;27;96787;-83
2023/12/16 01:42:19;;;;;;;18.08;9.70;;;;;;;7.18;69.91;102115.59;5038084;27;96931;-84
2023/12/16 01:44:44;;;;;;;16.60;9.32;;;;;;;7.11;70.14;102111.19;5036135;27;101057;-83
2023/12/16 01:47:10;;;;;;;15.80;8.73;;;;;;;7.20;69.98;102115.63;5019401;27;101171;-83
2023/12/16 01:49:37;;;;;;;18.30;10.27;;;;;;;7.26;69.80;102113.06;5002704;27;96843;-83
2023/12/16 01:52:07;;;;;;;18.60;9.02;;;;;;;7.23;69.48;102095.63;5037170;27;96858;-83
2023/12/16 01:54:33;;;;;;;25.27;12.27;;;;;;;7.31;69.54;102113.97;5021239;27;101533;-83
2023/12/16 01:56:59;;;;;;;16.15;9.40;;;;;;;7.15;69.51;102079.00;5004967;27;100577;-82
2023/12/16 01:59:26;;;;;;;17.85;9.77;;;;;;;7.14;69.16;102085.09;5002683;27;97584;-85
2023/12/16 02:01:51;;;;;;;21.98;10.50;;;;;;;7.33;69.36;102108.75;5022106;27;96915;-83
2023/12/16 02:04:19;;;;;;;20.45;9.60;;;;;;;7.38;69.41;102126.22;4990880;27;102363;-83
2023/12/16 02:06:44;;;;;;;21.00;9.98;;;;;;;7.33;69.23;102107.03;5017028;27;100408;-85
2023/12/16 02:09:10;;;;;;;18.33;10.18;;;;;;;7.35;69.09;102115.72;5018633;27;97327;-83
2023/12/16 02:11:36;;;;;;;17.83;8.02;;;;;;;7.42;69.22;102134.97;5020002;27;96995;-82
2023/12/16 02:14:01;;;;;;;17.38;10.20;;;;;;;7.36;69.18;102140.13;5002665;27;101221;-83
2023/12/16 02:16:27;;;;;;;15.70;8.45;;;;;;;7.44;68.63;102143.66;5019313;27;97427;-82
2023/12/16 02:18:53;;;;;;;22.08;9.73;;;;;;;7.41;69.03;102144.50;5001073;27;96910;-83
2023/12/16 02:21:18;;;;;;;19.58;8.68;;;;;;;7.31;68.82;102134.00;5012725;27;96936;-83
2023/12/16 02:23:44;;;;;;;28.80;10.25;;;;;;;7.29;68.96;102133.97;5018769;27;101518;-82
2023/12/16 02:26:09;;;;;;;20.88;10.30;;;;;;;7.12;69.28;102102.47;5019100;27;100745;-86
2023/12/16 02:28:35;;;;;;;30.73;11.07;;;;;;;7.40;69.04;102139.28;5017750;27;97320;-84
2023/12/16 02:31:00;;;;;;;28.77;11.57;;;;;;;7.32;68.79;102122.69;5000051;27;97012;-83
2023/12/16 02:33:26;;;;;;;26.58;11.80;;;;;;;7.16;69.20;102104.28;5035089;27;101103;-83
2023/12/16 02:35:51;;;;;;;31.73;13.65;;;;;;;7.38;69.14;102141.88;5002190;27;101582;-83
2023/12/16 02:38:17;;;;;;;25.10;12.32;;;;;;;7.42;69.32;102137.56;5018101;27;97308;-82
2023/12/16 02:40:43;;;;;;;27.92;12.20;;;;;;;7.35;69.07;102138.38;5002316;27;96847;-84
2023/12/16 02:43:09;;;;;;;27.95;12.93;;;;;;;7.31;69.28;102139.22;5011883;27;100984;-82
2023/12/16 02:45:34;;;;;;;26.55;11.02;;;;;;;7.30;69.57;102137.44;5002945;27;101244;-84
2023/12/16 02:48:00;;;;;;;28.23;12.85;;;;;;;7.35;69.05;102136.63;5001392;27;96785;-82
2023/12/16 02:50:26;;;;;;;29.98;11.30;;;;;;;7.31;69.39;102126.16;4999291;28;96960;-83
2023/12/16 02:52:51;;;;;;;24.50;11.90;;;;;;;7.37;69.52;102136.66;5018583;27;102052;-84
2023/12/16 02:55:18;;;;;;;21.95;11.52;;;;;;;7.19;69.65;102109.53;5019242;27;102338;-83
2023/12/16 02:57:44;;;;;;;25.48;10.88;;;;;;;7.40;69.59;102132.31;5019874;27;96899;-83
2023/12/16 03:00:10;;;;;;;24.67;11.30;;;;;;;7.23;69.73;102099.97;5019930;27;97293;-83
2023/12/16 03:02:36;;;;;;;24.85;12.25;;;;;;;7.24;69.99;102122.59;5009709;28;97272;-83
2023/12/16 03:05:02;;;;;;;29.63;12.73;;;;;;;7.26;69.72;102116.53;5002829;27;101866;-82
2023/12/16 03:07:27;;;;;;;31.25;13.40;;;;;;;7.37;69.42;102116.63;5014701;27;96814;-85
2023/12/16 03:09:53;;;;;;;25.90;12.52;;;;;;;7.23;70.19;102121.72;5018731;27;97014;-82
2023/12/16 03:12:19;;;;;;;20.20;11.88;;;;;;;7.20;70.05;102119.09;5019026;27;101029;-84
2023/12/16 03:14:44;;;;;;;22.85;12.90;;;;;;;7.24;70.30;102112.16;5019487;27;97852;-83
2023/12/16 03:17:12;;;;;;;25.98;11.57;;;;;;;7.22;70.28;102116.50;5002641;27;97103;-82
2023/12/16 03:19:37;;;;;;;22.02;11.15;;;;;;;7.20;70.30;102123.44;5003005;27;96880;-85
2023/12/16 03:22:03;;;;;;;23.27;12.65;;;;;;;7.26;70.46;102124.38;5018506;27;101374;-82
2023/12/16 03:24:29;;;;;;;23.52;11.55;;;;;;;7.46;69.79;102132.38;5003185;27;101302;-83
2023/12/16 03:26:55;;;;;;;25.90;12.13;;;;;;;7.38;69.85;102131.44;5023939;27;97111;-83
2023/12/16 03:29:20;;;;;;;24.08;12.35;;;;;;;7.39;70.44;102130.59;4993421;28;96960;-83
2023/12/16 03:31:46;;;;;;;26.83;12.93;;;;;;;7.40;69.94;102142.78;4994162;27;101666;-82
2023/12/16 03:34:11;;;;;;;26.13;12.68;;;;;;;7.17;70.40;102113.84;5003770;27;101098;-83
2023/12/16 03:36:37;;;;;;;24.70;12.05;;;;;;;7.28;69.98;102113.06;5004379;27;96701;-82
2023/12/16 03:39:07;;;;;;;25.65;11.85;;;;;;;7.58;69.63;102142.03;5009454;28;96993;-83
2023/12/16 03:41:34;;;;;;;25.85;12.30;;;;;;;7.48;69.67;102135.00;5011943;27;101152;-83
2023/12/16 03:44:00;;;;;;;21.73;12.00;;;;;;;7.54;69.62;102131.56;5003375;27;101589;-83
2023/12/16 03:46:26;;;;;;;22.67;11.50;;;;;;;7.43;69.78;102139.31;5020855;27;97658;-83
2023/12/16 03:48:52;;;;;;;25.30;11.32;;;;;;;7.24;70.29;102143.50;5000887;27;97048;-83
2023/12/16 03:51:21;;;;;;;29.75;12.98;;;;;;;7.26;69.98;102155.72;5020416;27;101438;-82
2023/12/16 03:53:46;;;;;;;22.67;11.40;;;;;;;7.38;70.22;102165.41;5037965;27;97458;-84
2023/12/16 03:56:12;;;;;;;19.90;11.02;;;;;;;7.45;69.95;102162.00;5020114;27;96715;-82
2023/12/16 03:58:37;;;;;;;27.88;12.35;;;;;;;7.52;69.92;102164.66;5008443;27;96840;-83
2023/12/16 04:01:04;;;;;;;26.70;11.93;;;;;;;7.44;70.21;102147.16;5019863;27;101527;-82
2023/12/16 04:03:29;;;;;;;20.73;10.35;;;;;;;7.34;70.34;102147.97;5000449;27;99164;-85
2023/12/16 04:05:55;;;;;;;20.40;10.20;;;;;;;7.36;70.22;102148.84;5016999;27;97659;-84
2023/12/16 04:08:20;;;;;;;22.73;11.25;;;;;;;7.55;69.95;102162.94;5018183;27;96870;-82
2023/12/16 04:10:46;;;;;;;24.52;11.05;;;;;;;7.54;70.10;102163.81;5018974;27;101451;-83
2023/12/16 04:13:14;;;;;;;21.58;10.13;;;;;;;7.43;70.04;102139.31;5036172;27;97356;-82
2023/12/16 04:15:39;;;;;;;22.30;10.55;;;;;;;7.52;69.73;102162.91;5003750;27;96886;-83
2023/12/16 04:18:05;;;;;;;21.05;10.73;;;;;;;7.48;69.38;102135.88;5006116;27;97425;-82
2023/12/16 04:20:30;;;;;;;21.95;11.10;;;;;;;7.52;69.61;102151.59;5002979;28;100817;-82
2023/12/16 04:22:56;;;;;;;24.20;10.55;;;;;;;7.61;69.71;102157.75;5016051;27;100795;-83
2023/12/16 04:25:22;;;;;;;16.52;10.05;;;;;;;7.61;69.38;102149.91;5020082;27;97438;-83
2023/12/16 04:27:48;;;;;;;22.42;11.15;;;;;;;7.39;69.69;102137.56;5017696;27;96953;-83
2023/12/16 04:30:14;;;;;;;25.40;11.93;;;;;;;7.50;69.57;102154.16;5018375;27;101544;-82
2023/12/16 04:32:39;;;;;;;20.33;9.70;;;;;;;7.46;69.91;102137.59;4992697;28;101149;-84
2023/12/16 04:35:05;;;;;;;20.65;10.20;;;;;;;7.54;69.42;102137.66;5018551;27;97206;-82
2023/12/16 04:37:31;;;;;;;23.15;10.25;;;;;;;7.44;69.73;102114.94;5023337;28;96893;-83
2023/12/16 04:39:56;;;;;;;24.13;10.68;;;;;;;7.65;69.24;102161.25;5013746;27;97426;-83
2023/12/16 04:42:22;;;;;;;22.75;10.30;;;;;;;7.70;69.62;102175.22;5014801;27;100471;-83
2023/12/16 04:44:47;;;;;;;18.08;8.93;;;;;;;7.56;69.23;102162.06;5015253;27;96774;-83
2023/12/16 04:47:13;;;;;;;21.05;9.57;;;;;;;7.61;69.53;102186.50;5005906;27;96883;-83
2023/12/16 04:49:40;;;;;;;19.02;9.23;;;;;;;7.45;69.69;102198.56;5005648;27;101325;-82
2023/12/16 04:52:06;;;;;;;17.95;9.98;;;;;;;7.47;70.04;102201.19;5039733;27;97400;-84
2023/12/16 04:54:31;;;;;;;19.95;9.90;;;;;;;7.62;69.90;102195.19;5023154;27;96767;-83
2023/12/16 04:56:57;;;;;;;23.02;9.82;;;;;;;7.52;69.96;102180.31;4986747;28;96875;-82
2023/12/16 04:59:22;;;;;;;17.05;9.27;;;;;;;7.66;69.58;102202.22;5004416;28;100784;-82
2023/12/16 05:01:48;;;;;;;16.40;9.50;;;;;;;7.64;69.58;102183.03;5031646;27;97495;-82
2023/12/16 05:04:13;;;;;;;16.00;8.20;;;;;;;7.49;69.92;102166.38;5056430;27;96788;-82
2023/12/16 05:06:39;;;;;;;16.90;9.65;;;;;;;7.38;69.58;102141.88;5039323;27;96812;-82
2023/12/16 05:09:12;;;;;;;13.60;9.02;;;;;;;7.65;69.76;102179.53;5039274;27;97357;-82
2023/12/16 05:11:38;;;;;;;17.77;9.30;;;;;;;7.60;70.04;102183.88;5020062;27;101170;-83
2023/12/16 05:14:03;;;;;;;16.83;9.95;;;;;;;7.39;69.68;102161.06;5007900;27;96780;-83
2023/12/16 05:16:29;;;;;;;15.57;8.85;;;;;;;7.42;69.42;102163.72;5005404;27;96843;-83
2023/12/16 05:18:54;;;;;;;17.55;7.97;;;;;;;7.50;69.83;102195.97;5005127;27;100888;-83
2023/12/16 05:21:20;;;;;;;19.20;9.45;;;;;;;7.49;70.02;102189.00;5022472;27;101209;-83
2023/12/16 05:23:46;;;;;;;16.23;8.10;;;;;;;7.63;69.30;102186.53;5000247;28;96818;-83
2023/12/16 05:26:12;;;;;;;19.73;9.35;;;;;;;7.63;69.59;102190.00;5016971;27;96859;-83
2023/12/16 05:28:37;;;;;;;19.60;9.95;;;;;;;7.60;69.73;102195.22;5018539;27;101225;-83
2023/12/16 05:31:03;;;;;;;19.77;9.80;;;;;;;7.63;69.98;102189.13;5006781;27;97593;-83
2023/12/16 05:33:28;;;;;;;18.27;9.35;;;;;;;7.62;69.54;102179.53;5022015;27;96907;-82
2023/12/16 05:35:54;;;;;;;15.68;8.25;;;;;;;7.67;69.79;102181.31;5016370;27;96799;-83
2023/12/16 05:38:19;;;;;;;16.77;8.88;;;;;;;7.66;69.64;102192.63;5015770;27;102267;-83
2023/12/16 05:40:45;;;;;;;16.88;11.02;;;;;;;7.55;69.88;102167.28;4991888;27;101969;-82
2023/12/16 05:43:11;;;;;;;19.30;9.70;;;;;;;7.70;69.63;102190.91;5021147;27;96795;-83
2023/12/16 05:45:37;;;;;;;18.58;9.32;;;;;;;7.67;69.64;102180.44;5018797;27;97093;-83
2023/12/16 05:48:02;;;;;;;17.35;9.30;;;;;;;7.60;69.61;102166.47;5001340;28;100911;-83
2023/12/16 05:50:28;;;;;;;17.15;9.13;;;;;;;7.69;69.94;102191.78;5017306;27;100594;-82
2023/12/16 05:52:53;;;;;;;16.05;9.68;;;;;;;7.77;70.03;102197.09;5018423;28;97991;-83
2023/12/16 05:55:19;;;;;;;18.25;9.85;;;;;;;7.62;69.92;102172.59;5001869;28;97016;-82
2023/12/16 05:57:44;;;;;;;17.27;9.23;;;;;;;7.89;69.52;102210.25;5000926;28;101364;-83
2023/12/16 06:00:10;;;;;;;17.33;8.80;;;;;;;7.81;69.46;102191.00;5008199;28;101239;-82
2023/12/16 06:02:36;;;;;;;19.17;9.93;;;;;;;7.89;69.66;102208.50;5005029;28;97160;-82
2023/12/16 06:05:02;;;;;;;20.95;9.50;;;;;;;7.88;69.89;102205.84;5019194;28;96783;-82
2023/12/16 06:07:28;;;;;;;15.10;9.18;;;;;;;7.96;69.50;102214.63;5001263;28;101623;-82
2023/12/16 06:09:53;;;;;;;21.50;10.32;;;;;;;7.93;69.72;102212.88;5011353;28;101388;-83
2023/12/16 06:12:19;;;;;;;16.73;9.05;;;;;;;7.79;69.44;102185.75;5003746;28;96778;-82
2023/12/16 06:14:46;;;;;;;18.80;10.45;;;;;;;7.84;69.15;102204.09;5018248;28;97532;-82
2023/12/16 06:17:12;;;;;;;17.08;10.57;;;;;;;7.92;69.68;102220.72;5018071;28;101682;-84
2023/12/16 06:19:37;;;;;;;20.92;9.13;;;;;;;7.86;69.24;102211.09;5000577;28;101340;-83
2023/12/16 06:22:03;;;;;;;18.08;9.77;;;;;;;7.85;69.87;102211.06;5018488;28;97429;-82
2023/12/16 06:24:28;;;;;;;15.55;9.23;;;;;;;7.93;69.36;102220.72;4990595;28;96863;-82
2023/12/16 06:26:54;;;;;;;23.27;11.20;;;;;;;7.95;69.67;102220.75;5003598;28;101325;-82
2023/12/16 06:29:20;;;;;;;17.95;9.88;;;;;;;7.96;69.52;102225.09;5006083;28;100383;-82
2023/12/16 06:31:46;;;;;;;23.58;11.85;;;;;;;7.65;70.10;102187.38;4998308;28;97520;-83
2023/12/16 06:34:11;;;;;;;27.02;12.40;;;;;;;7.79;69.79;102218.88;4999641;28;96933;-83
2023/12/16 06:36:37;;;;;;;28.27;13.10;;;;;;;7.70;70.28;102202.25;5032269;27;97412;-82
2023/12/16 06:39:03;;;;;;;30.75;14.48;;;;;;;7.82;69.98;102214.53;5007159;28;100932;-82
2023/12/16 06:41:30;;;;;;;26.35;12.93;;;;;;;7.90;69.78;102219.81;5017812;28;98432;-83
2023/12/16 06:43:56;;;;;;;24.90;13.93;;;;;;;7.87;70.15;102205.00;5013473;28;96730;-85
2023/12/16 06:46:23;;;;;;;33.08;15.48;;;;;;;7.86;69.87;102224.16;4987516;28;101036;-83
2023/12/16 06:48:49;;;;;;;27.65;13.68;;;;;;;7.91;69.71;102225.09;5026361;27;101211;-83
2023/12/16 06:51:14;;;;;;;29.08;14.95;;;;;;;7.92;69.85;102229.44;5014296;28;96832;-82
2023/12/16 06:53:40;;;;;;;29.55;14.73;;;;;;;7.91;70.21;102240.78;5007197;28;96972;-83
2023/12/16 06:56:07;;;;;;;25.58;12.45;;;;;;;7.82;70.67;102240.69;5016568;28;101642;-82
2023/12/16 06:58:34;;;;;;;24.27;12.35;;;;;;;7.72;71.17;102238.88;5013113;28;100790;-82
2023/12/16 07:00:59;;;;;;;26.73;12.52;;;;;;;7.86;70.45;102239.84;4996398;28;97088;-82
2023/12/16 07:03:28;;;;;;;21.88;11.95;;;;;;;7.87;70.31;102236.38;5009405;28;97371;-85
2023/12/16 07:05:54;;;;;;;19.58;11.70;;;;;;;7.77;70.78;102242.41;5016407;27;101818;-82
2023/12/16 07:08:21;;;;;;;22.48;11.60;;;;;;;7.94;70.89;102261.72;5010085;28;102651;-82
2023/12/16 07:10:48;;;;;;;20.48;12.15;;;;;;;7.74;70.58;102234.53;4999746;28;97472;-82
2023/12/16 07:13:13;;;;;;;19.85;12.57;;;;;;;7.87;70.34;102240.72;5028961;28;96896;-83
2023/12/16 07:15:39;;;;;;;24.40;11.80;;;;;;;7.67;71.42;102230.97;5010925;28;101179;-82
2023/12/16 07:18:05;;;;;;;21.27;10.57;;;;;;;7.78;71.31;102244.16;5022722;28;97376;-83
2023/12/16 07:20:31;;;;;;;19.45;11.85;;;;;;;7.80;71.27;102238.94;4980574;28;96729;-81
2023/12/16 07:22:56;;;;;;;18.70;11.68;;;;;;;7.78;71.21;102245.88;4989729;28;97094;-82
2023/12/16 07:25:22;;;;;;;22.50;11.57;;;;;;;7.77;70.92;102225.84;4989345;28;101131;-82
2023/12/16 07:27:48;;;;;;;17.70;11.93;;;;;;;7.77;71.32;102216.25;5008975;28;97915;-81
2023/12/16 07:30:18;;;;;;;21.08;11.93;;;;;;;7.98;71.09;102246.03;4994135;28;97298;-82
2023/12/16 07:32:45;;;;;;;23.70;12.30;;;;;;;7.98;71.18;102256.50;5007067;28;97129;-81
2023/12/16 07:35:13;;;;;;;20.77;11.65;;;;;;;8.01;71.45;102246.06;5015263;28;101191;-81
2023/12/16 07:37:42;;;;;;;23.77;13.35;;;;;;;8.10;70.84;102253.97;5025834;28;97472;-83
2023/12/16 07:40:09;;;;;;;20.83;11.50;;;;;;;7.94;71.35;102251.25;4993481;28;97060;-82
2023/12/16 07:42:39;;;;;;;18.92;12.05;;;;;;;7.99;71.39;102253.00;4989271;28;97478;-81
2023/12/16 07:45:08;;;;;;;21.10;12.40;;;;;;;7.76;71.38;102221.47;5023903;28;101415;-81
2023/12/16 07:47:34;;;;;;;21.25;13.57;;;;;;;7.90;71.24;102259.91;5005876;28;100843;-83
2023/12/16 07:49:59;;;;;;;26.33;13.60;;;;;;;8.00;71.49;102267.84;5014887;28;97102;-81
2023/12/16 07:52:26;;;;;;;23.83;12.82;;;;;;;8.05;71.06;102266.13;5016582;28;96845;-82
2023/12/16 07:54:51;;;;;;;22.40;11.52;;;;;;;8.15;70.92;102262.75;5012721;28;101669;-83
2023/12/16 07:57:17;;;;;;;25.73;12.63;;;;;;;8.09;70.99;102266.19;4990044;28;101225;-84
2023/12/16 07:59:43;;;;;;;24.15;12.38;;;;;;;8.10;71.54;102274.91;5003867;28;96785;-81
2023/12/16 08:02:09;;;;;;;22.80;11.68;;;;;;;8.11;71.34;102268.78;5010874;28;98048;-81
2023/12/16 08:04:35;;;;;;;24.30;12.18;;;;;;;8.23;70.72;102283.69;5010360;28;101152;-81
2023/12/16 08:07:02;;;;;;;20.70;11.82;;;;;;;8.12;70.49;102266.19;4993578;28;99520;-81
2023/12/16 08:09:27;;;;;;;29.45;13.23;;;;;;;8.10;70.86;102275.78;5013844;28;97491;-81
2023/12/16 08:11:58;;;;;;;21.92;12.48;;;;;;;8.06;70.71;102286.22;5015507;28;97874;-82
2023/12/16 08:14:28;;;;;;;23.23;12.98;;;;;;;8.11;70.84;102292.34;5015328;28;101369;-82
2023/12/16 08:16:53;;;;;;;25.48;12.32;;;;;;;8.00;70.96;102253.03;5032368;27;97416;-81
2023/12/16 08:19:19;;;;;;;23.10;12.80;;;;;;;8.12;70.71;102283.66;5013903;28;97269;-81
2023/12/16 08:21:45;;;;;;;19.98;12.43;;;;;;;8.23;70.87;102281.06;5016692;28;97446;-80
2023/12/16 08:24:11;;;;;;;22.05;12.95;;;;;;;8.12;71.09;102268.81;4992993;28;99562;-80
2023/12/16 08:26:36;;;;;;;25.38;13.25;;;;;;;8.16;70.57;102267.97;4999407;28;100725;-81
2023/12/16 08:29:02;;;;;;;20.10;11.63;;;;;;;8.11;71.25;102287.97;5002349;28;97238;-84
2023/12/16 08:31:28;;;;;;;20.23;11.43;;;;;;;8.01;71.46;102278.31;5000931;28;97231;-81
2023/12/16 08:33:55;;;;;;;24.83;11.77;;;;;;;8.14;71.52;102288.03;5033021;28;101350;-81
2023/12/16 08:36:20;;;;;;;22.65;12.05;;;;;;;8.14;71.86;102274.94;5018609;28;99015;-81
2023/12/16 08:38:46;;;;;;;22.42;11.90;;;;;;;8.14;71.83;102276.66;5016889;28;97226;-83
2023/12/16 08:41:12;;;;;;;19.75;11.27;;;;;;;8.26;71.39;102291.56;5017856;28;98149;-83
2023/12/16 08:43:38;;;;;;;23.20;11.65;;;;;;;8.24;71.49;102275.88;4998536;28;102319;-81
2023/12/16 08:46:04;;;;;;;25.33;11.98;;;;;;;8.26;71.52;102284.63;5016433;28;99047;-79
2023/12/16 08:48:29;;;;;;;20.10;12.15;;;;;;;8.31;71.78;102284.63;5000608;27;97750;-81
2023/12/16 08:50:58;;;;;;;23.70;12.65;;;;;;;8.31;71.61;102292.47;5018883;28;97063;-83
2023/12/16 08:53:24;;;;;;;20.80;11.60;;;;;;;8.21;71.85;102294.16;4998549;28;101435;-82
2023/12/16 08:55:50;;;;;;;25.95;13.05;;;;;;;8.18;72.10;102248.81;5031979;28;98556;-82
2023/12/16 08:58:16;;;;;;;26.90;14.35;;;;;;;8.17;71.82;102271.44;5016351;27;97904;-84
2023/12/16 09:00:42;;;;;;;24.92;13.55;;;;;;;8.29;72.41;102295.09;5015148;28;97649;-82
2023/12/16 09:03:08;;;;;;;20.75;12.20;;;;;;;8.44;71.84;102298.72;5011144;28;98374;-81
2023/12/16 09:05:34;;;;;;;21.20;12.60;;;;;;;8.34;71.63;102295.97;5034520;27;98464;-80
2023/12/16 09:07:59;;;;;;;26.70;12.85;;;;;;;8.36;71.87;102303.88;5033123;28;96769;-82
2023/12/16 09:10:25;;;;;;;21.60;12.77;;;;;;;8.38;71.60;102296.91;5013943;28;97305;-83
2023/12/16 09:12:51;;;;;;;22.65;11.95;;;;;;;8.29;71.92;102294.19;5033993;27;97526;-80
2023/12/16 09:15:17;;;;;;;22.55;12.40;;;;;;;8.19;72.29;102293.28;5017451;28;100566;-83
2023/12/16 09:17:44;;;;;;;23.08;12.18;;;;;;;8.30;72.08;102296.84;5017108;28;96825;-83
2023/12/16 09:20:10;;;;;;;25.48;11.85;;;;;;;8.13;72.33;102301.94;5022972;28;96922;-83
2023/12/16 09:22:36;;;;;;;26.83;13.00;;;;;;;8.21;72.20;102309.00;5023333;28;99416;-76
2023/12/16 09:25:04;;;;;;;25.55;12.68;;;;;;;8.21;72.03;102293.31;5025389;28;97788;-78
2023/12/16 09:27:29;;;;;;;25.88;12.32;;;;;;;8.28;72.31;102298.56;5028255;28;96825;-78
2023/12/16 09:29:55;;;;;;;19.30;10.27;;;;;;;8.40;71.36;102308.28;5034477;27;97205;-81
2023/12/16 09:32:23;;;;;;;25.65;11.40;;;;;;;8.30;71.68;102307.31;5027421;28;97365;-78
2023/12/16 09:34:49;;;;;;;23.42;11.05;;;;;;;8.39;71.37;102298.69;5016865;28;101563;-79
2023/12/16 09:37:15;;;;;;;25.63;11.70;;;;;;;8.37;70.79;102287.28;5017322;28;97079;-83
2023/12/16 09:39:40;;;;;;;24.45;13.00;;;;;;;8.54;71.16;102282.19;5034312;28;97294;-75
2023/12/16 09:42:06;;;;;;;26.10;12.23;;;;;;;8.50;70.57;102293.53;5017067;28;101264;-77
2023/12/16 09:44:39;;;;;;;27.65;11.95;;;;;;;8.54;70.69;102277.81;5033985;28;97369;-76
2023/12/16 09:47:05;;;;;;;26.75;12.02;;;;;;;8.65;70.42;102280.50;5036381;27;96876;-76
2023/12/16 09:49:31;;;;;;;21.83;11.52;;;;;;;8.58;70.38;102282.22;5036606;27;97269;-75
2023/12/16 09:51:57;;;;;;;24.48;11.77;;;;;;;8.45;70.10;102269.06;5037025;27;100918;-79
2023/12/16 09:54:22;;;;;;;23.48;10.77;;;;;;;8.51;70.19;102283.03;5028512;27;98286;-77
2023/12/16 09:56:49;;;;;;;23.42;11.20;;;;;;;8.61;69.94;102284.00;5031225;27;96947;-79
2023/12/16 09:59:18;;;;;;;22.15;10.68;;;;;;;8.65;69.63;102277.88;5030977;27;97139;-78
2023/12/16 10:01:53;;;;;;;23.85;11.13;;;;;;;8.58;70.12;102263.91;5026437;27;97609;-79
2023/12/16 10:04:20;;;;;;;26.35;10.45;;;;;;;8.81;69.58;102277.09;5020869;27;97273;-77
2023/12/16 10:06:46;;;;;;;26.67;11.48;;;;;;;8.87;69.62;102281.47;5042609;27;96763;-77
2023/12/16 10:09:12;;;;;;;25.27;10.27;;;;;;;8.70;69.27;102252.59;5026903;27;97442;-75
2023/12/16 10:11:41;;;;;;;21.80;10.82;;;;;;;8.85;69.55;102280.59;5003772;27;100422;-77
2023/12/16 10:14:07;;;;;;;21.02;9.25;;;;;;;8.83;69.14;102277.09;5027575;27;97849;-76
2023/12/16 10:16:33;;;;;;;24.10;9.68;;;;;;;8.96;68.97;102264.91;5032155;27;97533;-78
2023/12/16 10:18:59;;;;;;;24.40;11.27;;;;;;;8.99;68.99;102265.81;5028972;27;97320;-77
2023/12/16 10:21:28;;;;;;;20.42;9.07;;;;;;;9.06;68.53;102261.47;5033361;27;98209;-86
2023/12/16 10:24:01;;;;;;;17.85;8.85;;;;;;;8.78;67.78;102252.63;5013382;27;101564;-79
2023/12/16 10:26:31;;;;;;;17.45;8.25;;;;;;;8.93;67.95;102259.66;5002192;27;97519;-79
2023/12/16 10:28:57;;;;;;;17.73;8.85;;;;;;;9.03;67.88;102267.56;5013176;27;98508;-78
2023/12/16 10:31:24;;;;;;;22.90;9.20;;;;;;;9.20;67.56;102272.00;5016222;27;101631;-77
2023/12/16 10:33:53;;;;;;;18.38;7.82;;;;;;;9.26;67.54;102267.63;5009701;27;101258;-81
2023/12/16 10:36:19;;;;;;;18.67;7.68;;;;;;;9.33;67.14;102270.25;5028495;27;97098;-77
2023/12/16 10:38:44;;;;;;;21.40;8.13;;;;;;;9.24;66.82;102260.63;5010924;27;97437;-77
2023/12/16 10:41:10;;;;;;;19.02;8.57;;;;;;;9.25;66.66;102263.28;5029761;27;100856;-79
2023/12/16 10:43:37;;;;;;;19.70;7.50;;;;;;;9.18;66.99;102256.25;5010687;27;98098;-78
2023/12/16 10:46:05;;;;;;;15.55;7.88;;;;;;;9.13;66.32;102252.72;5009977;27;97352;-79
2023/12/16 10:48:35;;;;;;;22.58;7.63;;;;;;;9.07;67.11;102256.25;5009771;27;97559;-81
2023/12/16 10:51:03;;;;;;;23.77;8.02;;;;;;;9.02;66.38;102238.75;5008465;27;100581;-76
2023/12/16 10:53:41;;;;;;;15.88;7.28;;;;;;;9.20;66.82;102262.38;5029178;27;97524;-80
2023/12/16 10:56:16;;;;;;;16.08;7.80;;;;;;;9.05;67.63;102259.72;5011347;27;97428;-78
2023/12/16 10:58:55;;;;;;;24.15;8.13;;;;;;;9.09;67.25;102261.47;5028792;27;98123;-78
2023/12/16 11:01:23;;;;;;;11.95;6.65;;;;;;;8.97;67.55;102240.47;5014535;27;101235;-77
2023/12/16 11:04:11;;;;;;;14.77;7.13;;;;;;;9.04;66.20;102260.56;4998820;27;100069;-79
2023/12/16 11:06:56;;;;;;;24.42;8.52;;;;;;;8.79;67.06;102229.06;5025264;27;98016;-77
2023/12/16 11:09:21;;;;;;;18.00;7.35;;;;;;;8.95;66.89;102255.31;5010734;27;97829;-78
2023/12/16 11:11:47;;;;;;;15.77;6.80;;;;;;;8.98;66.82;102255.31;5044430;27;97897;-77